createdAt,value
2017-09-15T00:02:20.867Z,3.07
2017-09-15T00:04:48.420Z,3.17
2017-09-15T00:07:15.955Z,2.50
2017-09-15T00:09:43.729Z,4.73
2017-09-15T00:12:11.264Z,3.00
2017-09-15T00:14:38.874Z,2.93
2017-09-15T00:17:06.521Z,2.70
2017-09-15T00:19:34.094Z,3.20
2017-09-15T00:22:01.738Z,3.27
2017-09-15T00:24:29.366Z,2.87
2017-09-15T00:26:57.734Z,3.87
2017-09-15T00:29:26.045Z,2.93
2017-09-15T00:31:53.571Z,2.90
2017-09-15T00:34:21.906Z,2.80
2017-09-15T00:36:49.567Z,2.60
2017-09-15T00:39:17.094Z,3.07
2017-09-15T00:41:44.663Z,2.93
2017-09-15T00:44:12.206Z,3.00
2017-09-15T00:46:39.773Z,3.07
2017-09-15T00:49:07.302Z,3.03
2017-09-15T00:51:37.997Z,3.43
2017-09-15T00:54:05.536Z,3.73
2017-09-15T00:56:33.099Z,3.10
2017-09-15T00:59:00.639Z,3.20
2017-09-15T01:01:28.239Z,4.00
2017-09-15T01:03:55.777Z,3.10
2017-09-15T01:06:23.316Z,3.73
2017-09-15T01:08:51.619Z,2.73
2017-09-15T01:11:19.199Z,2.97
2017-09-15T01:13:46.762Z,2.97
2017-09-15T01:16:14.323Z,4.23
2017-09-15T01:18:41.890Z,3.00
2017-09-15T01:21:09.446Z,3.33
2017-09-15T01:23:37.105Z,3.47
2017-09-15T01:26:04.642Z,2.97
2017-09-15T01:28:32.230Z,3.03
2017-09-15T01:30:59.791Z,3.07
2017-09-15T01:33:27.443Z,2.73
2017-09-15T01:35:55.020Z,2.57
2017-09-15T01:38:22.571Z,3.37
2017-09-15T01:40:50.099Z,3.30
2017-09-15T01:43:18.403Z,3.27
2017-09-15T01:45:45.962Z,2.50
2017-09-15T01:48:13.564Z,2.83
2017-09-15T01:50:41.127Z,2.83
2017-09-15T01:53:08.682Z,2.53
2017-09-15T01:55:37.847Z,2.80
2017-09-15T01:58:05.375Z,3.00
2017-09-15T02:00:32.935Z,2.30
2017-09-15T02:03:01.239Z,3.17
2017-09-15T02:05:28.828Z,3.13
2017-09-15T02:07:56.363Z,3.53
2017-09-15T02:10:23.928Z,3.03
2017-09-15T02:12:51.587Z,2.90
2017-09-15T02:15:19.131Z,2.60
2017-09-15T02:17:46.662Z,2.80
2017-09-15T02:20:14.971Z,3.30
2017-09-15T02:22:42.531Z,3.07
2017-09-15T02:25:10.110Z,3.10
2017-09-15T02:27:37.672Z,3.30
2017-09-15T02:30:05.210Z,3.40
2017-09-15T02:32:32.794Z,2.83
2017-09-15T02:35:00.334Z,3.10
2017-09-15T02:37:27.923Z,4.40
2017-09-15T02:39:55.463Z,2.43
2017-09-15T02:42:22.999Z,2.70
2017-09-15T02:44:51.298Z,4.80
2017-09-15T02:47:18.843Z,2.87
2017-09-15T02:49:46.417Z,2.93
2017-09-15T02:52:13.951Z,2.83
2017-09-15T02:54:41.516Z,2.77
2017-09-15T02:57:09.173Z,3.40
2017-09-15T02:59:37.046Z,2.83
2017-09-15T03:02:04.748Z,3.83
2017-09-15T03:04:33.159Z,3.20
2017-09-15T03:07:00.733Z,3.43
2017-09-15T03:09:28.295Z,3.30
2017-09-15T03:11:55.849Z,2.90
2017-09-15T03:14:23.433Z,2.80
2017-09-15T03:16:51.083Z,3.43
2017-09-15T03:19:18.636Z,2.83
2017-09-15T03:21:46.167Z,2.93
2017-09-15T03:24:13.721Z,3.00
2017-09-15T03:26:42.027Z,3.37
2017-09-15T03:29:09.557Z,2.90
2017-09-15T03:31:37.859Z,3.80
2017-09-15T03:34:05.558Z,3.10
2017-09-15T03:36:33.203Z,3.10
2017-09-15T03:39:00.751Z,3.20
2017-09-15T03:41:41.365Z,2.80
2017-09-15T03:44:09.021Z,3.10
2017-09-15T03:46:36.558Z,3.43
2017-09-15T03:49:04.103Z,3.70
2017-09-15T03:51:31.701Z,3.50
2017-09-15T03:53:59.286Z,4.00
2017-09-15T03:56:27.659Z,3.80
2017-09-15T03:58:55.199Z,3.30
2017-09-15T04:01:22.734Z,3.53
2017-09-15T04:03:50.282Z,3.50
2017-09-15T04:06:17.814Z,3.63
2017-09-15T04:08:46.128Z,3.40
2017-09-15T04:11:13.699Z,3.93
2017-09-15T04:13:41.258Z,4.03
2017-09-15T04:16:08.838Z,3.67
2017-09-15T04:18:36.374Z,3.80
2017-09-15T04:21:03.942Z,2.97
2017-09-15T04:23:31.700Z,3.30
2017-09-15T04:25:59.263Z,3.70
2017-09-15T04:28:26.876Z,3.60
2017-09-15T04:30:54.415Z,3.37
2017-09-15T04:33:22.047Z,4.60
2017-09-15T04:35:49.587Z,3.20
2017-09-15T04:38:18.032Z,2.90
2017-09-15T04:40:45.575Z,3.47
2017-09-15T04:43:13.117Z,4.00
2017-09-15T04:45:40.650Z,3.43
2017-09-15T04:48:16.637Z,3.40
2017-09-15T04:50:44.226Z,3.00
2017-09-15T04:53:11.768Z,3.73
2017-09-15T04:55:39.363Z,2.70
2017-09-15T04:58:07.431Z,3.83
2017-09-15T05:00:35.072Z,3.40
2017-09-15T05:03:02.615Z,3.90
2017-09-15T05:05:30.194Z,3.77
2017-09-15T05:07:57.972Z,3.70
2017-09-15T05:10:25.529Z,3.50
2017-09-15T05:12:53.080Z,3.40
2017-09-15T05:15:20.615Z,4.27
2017-09-15T05:17:48.168Z,3.50
2017-09-15T05:20:15.730Z,3.63
2017-09-15T05:22:43.295Z,3.60
2017-09-15T05:25:10.839Z,4.20
2017-09-15T05:27:38.415Z,5.47
2017-09-15T05:30:05.998Z,4.10
2017-09-15T05:32:33.599Z,3.47
2017-09-15T05:35:01.221Z,3.50
2017-09-15T05:37:28.795Z,3.70
2017-09-15T05:39:56.423Z,4.27
2017-09-15T05:42:24.002Z,4.20
2017-09-15T05:44:51.562Z,3.93
2017-09-15T05:47:19.098Z,4.00
2017-09-15T05:49:53.343Z,4.23
2017-09-15T05:52:21.021Z,6.93
2017-09-15T05:54:48.666Z,7.17
2017-09-15T05:57:16.235Z,5.00
2017-09-15T05:59:43.847Z,4.07
2017-09-15T06:02:12.964Z,4.30
2017-09-15T06:04:41.395Z,3.67
2017-09-15T06:07:08.946Z,4.90
2017-09-15T06:09:36.551Z,5.97
2017-09-15T06:12:04.247Z,4.10
2017-09-15T06:14:32.633Z,5.20
2017-09-15T06:17:00.191Z,4.03
2017-09-15T06:19:28.537Z,4.70
2017-09-15T06:21:56.901Z,5.77
2017-09-15T06:24:24.447Z,7.17
2017-09-15T06:26:52.091Z,3.80
2017-09-15T06:29:19.696Z,8.13
2017-09-15T06:31:47.421Z,9.30
2017-09-15T06:34:15.220Z,8.60
2017-09-15T06:36:42.806Z,4.40
2017-09-15T06:39:11.131Z,5.23
2017-09-15T06:41:38.721Z,6.90
2017-09-15T06:44:06.260Z,5.27
2017-09-15T06:46:33.821Z,5.53
2017-09-15T06:49:01.378Z,5.77
2017-09-15T06:51:29.684Z,5.40
2017-09-15T06:53:57.255Z,6.23
2017-09-15T06:56:25.585Z,6.50
2017-09-15T06:58:53.155Z,6.57
2017-09-15T07:01:20.697Z,7.20
2017-09-15T07:03:48.370Z,6.60
2017-09-15T07:06:16.246Z,6.40
2017-09-15T07:08:44.871Z,7.50
2017-09-15T07:11:13.186Z,8.40
2017-09-15T07:13:40.747Z,9.80
2017-09-15T07:16:08.591Z,8.97
2017-09-15T07:18:36.947Z,11.60
2017-09-15T07:21:04.587Z,13.87
2017-09-15T07:23:32.241Z,10.33
2017-09-15T07:25:59.807Z,8.23
2017-09-15T07:28:27.413Z,8.60
2017-09-15T07:30:55.945Z,7.70
2017-09-15T07:33:23.594Z,9.50
2017-09-15T07:35:51.218Z,8.40
2017-09-15T07:38:19.659Z,9.03
2017-09-15T07:40:47.255Z,9.93
2017-09-15T07:43:15.623Z,10.80
2017-09-15T07:45:44.744Z,9.43
2017-09-15T07:48:13.147Z,9.83
2017-09-15T07:50:40.736Z,10.13
2017-09-15T07:53:08.404Z,10.37
2017-09-15T07:55:35.977Z,10.97
2017-09-15T07:58:03.663Z,10.00
2017-09-15T08:00:32.019Z,10.60
2017-09-15T08:02:59.566Z,11.00
2017-09-15T08:05:27.315Z,9.87
2017-09-15T08:07:54.882Z,10.47
2017-09-15T08:10:22.443Z,10.30
2017-09-15T08:12:50.042Z,10.20
2017-09-15T08:15:17.598Z,11.40
2017-09-15T08:17:45.160Z,11.00
2017-09-15T08:20:13.587Z,11.13
2017-09-15T08:22:41.352Z,9.60
2017-09-15T08:25:09.276Z,9.67
2017-09-15T08:27:36.853Z,8.83
2017-09-15T08:30:05.185Z,8.33
2017-09-15T08:32:33.337Z,8.67
2017-09-15T08:35:02.348Z,8.30
2017-09-15T08:37:32.143Z,7.90
2017-09-15T08:40:01.530Z,7.77
2017-09-15T08:42:29.334Z,8.57
2017-09-15T08:44:56.929Z,7.30
2017-09-15T08:47:24.520Z,8.50
2017-09-15T08:49:52.138Z,7.30
2017-09-15T08:52:19.712Z,7.80
2017-09-15T08:54:47.316Z,7.10
2017-09-15T08:57:14.997Z,7.67
2017-09-15T08:59:42.720Z,7.23
2017-09-15T09:02:11.197Z,7.53
2017-09-15T09:04:39.620Z,7.67
2017-09-15T09:07:07.256Z,7.20
2017-09-15T09:09:35.766Z,7.83
2017-09-15T09:12:03.340Z,7.30
2017-09-15T09:14:30.977Z,7.43
2017-09-15T09:16:58.617Z,6.73
2017-09-15T09:19:27.024Z,7.20
2017-09-15T09:21:54.865Z,6.77
2017-09-15T09:24:23.244Z,7.37
2017-09-15T09:26:51.586Z,7.00
2017-09-15T09:29:19.861Z,7.30
2017-09-15T09:31:47.490Z,6.00
2017-09-15T09:34:15.564Z,6.63
2017-09-15T09:36:44.546Z,6.23
2017-09-15T09:39:12.398Z,6.37
2017-09-15T09:41:40.699Z,6.77
2017-09-15T09:44:08.279Z,5.60
2017-09-15T09:46:35.840Z,6.73
2017-09-15T09:49:03.457Z,6.60
2017-09-15T09:51:31.954Z,6.23
2017-09-15T09:53:59.515Z,6.00
2017-09-15T09:56:27.146Z,5.80
2017-09-15T09:58:54.811Z,6.37
2017-09-15T10:01:22.348Z,6.20
2017-09-15T10:03:49.903Z,4.93
2017-09-15T10:06:18.204Z,6.10
2017-09-15T10:08:45.751Z,5.87
2017-09-15T10:11:13.343Z,6.30
2017-09-15T10:13:40.901Z,4.63
2017-09-15T10:16:08.447Z,6.13
2017-09-15T10:18:36.019Z,5.80
2017-09-15T10:21:03.589Z,5.40
2017-09-15T10:23:31.118Z,5.27
2017-09-15T10:25:58.795Z,5.83
2017-09-15T10:28:26.378Z,5.77
2017-09-15T10:30:54.016Z,6.50
2017-09-15T10:33:21.557Z,5.50
2017-09-15T10:35:49.150Z,5.47
2017-09-15T10:38:16.748Z,6.03
2017-09-15T10:40:45.102Z,5.33
2017-09-15T10:43:12.659Z,5.50
2017-09-15T10:45:40.192Z,5.97
2017-09-15T10:48:07.798Z,5.30
2017-09-15T10:50:36.123Z,5.03
2017-09-15T10:53:03.727Z,6.30
2017-09-15T10:55:31.267Z,5.70
2017-09-15T10:58:04.570Z,5.20
2017-09-15T11:00:32.102Z,5.03
2017-09-15T11:02:59.710Z,5.10
2017-09-15T11:05:28.036Z,5.20
2017-09-15T11:07:55.685Z,4.83
2017-09-15T11:10:23.234Z,5.40
2017-09-15T11:12:50.811Z,5.63
2017-09-15T11:15:18.346Z,5.70
2017-09-15T11:17:45.878Z,6.00
2017-09-15T11:20:13.472Z,5.83
2017-09-15T11:22:41.009Z,5.37
2017-09-15T11:25:09.336Z,4.80
2017-09-15T11:27:36.870Z,4.13
2017-09-15T11:30:04.463Z,4.10
2017-09-15T11:32:32.030Z,4.20
2017-09-15T11:34:59.670Z,4.50
2017-09-15T11:37:27.237Z,4.60
2017-09-15T11:39:54.914Z,5.03
2017-09-15T11:42:22.500Z,4.73
2017-09-15T11:44:50.177Z,5.23
2017-09-15T11:47:18.482Z,5.30
2017-09-15T11:49:46.063Z,5.27
2017-09-15T11:52:13.639Z,4.80
2017-09-15T11:54:41.167Z,4.70
2017-09-15T11:57:08.727Z,5.40
2017-09-15T11:59:36.271Z,5.27
2017-09-15T12:02:03.868Z,5.83
2017-09-15T12:04:31.426Z,5.50
2017-09-15T12:06:58.979Z,5.73
2017-09-15T12:09:26.506Z,5.87
2017-09-15T12:11:54.919Z,5.97
2017-09-15T12:14:22.489Z,5.70
2017-09-15T12:16:50.156Z,5.93
2017-09-15T12:19:17.685Z,6.27
2017-09-15T12:21:45.270Z,6.40
2017-09-15T12:24:12.828Z,5.40
2017-09-15T12:26:40.366Z,5.80
2017-09-15T12:29:07.927Z,6.10
2017-09-15T12:31:35.454Z,6.33
2017-09-15T12:34:03.018Z,5.77
2017-09-15T12:36:30.632Z,6.00
2017-09-15T12:38:58.199Z,6.50
2017-09-15T12:41:25.727Z,6.40
2017-09-15T12:43:53.315Z,6.00
2017-09-15T12:46:20.842Z,6.20
2017-09-15T12:48:49.139Z,5.50
2017-09-15T12:51:16.679Z,5.40
2017-09-15T12:53:44.278Z,7.00
2017-09-15T12:56:11.941Z,6.60
2017-09-15T12:58:39.484Z,7.00
2017-09-15T13:01:07.824Z,6.00
2017-09-15T13:03:35.452Z,5.50
2017-09-15T13:06:03.218Z,5.10
2017-09-15T13:08:30.955Z,6.37
2017-09-15T13:10:59.432Z,5.87
2017-09-15T13:13:27.832Z,5.43
2017-09-15T13:15:55.386Z,5.33
2017-09-15T13:18:23.019Z,14.63
2017-09-15T13:20:50.827Z,4.00
2017-09-15T13:23:19.247Z,4.50
2017-09-15T13:25:46.834Z,14.97
2017-09-15T13:28:14.570Z,5.47
2017-09-15T13:30:42.207Z,5.07
2017-09-15T13:33:09.768Z,4.40
2017-09-15T13:35:37.306Z,4.17
2017-09-15T13:38:04.845Z,4.63
2017-09-15T13:40:33.187Z,4.70
2017-09-15T13:43:01.041Z,4.20
2017-09-15T13:45:28.596Z,4.37
2017-09-15T13:47:56.131Z,3.73
2017-09-15T13:50:25.679Z,3.73
2017-09-15T13:52:53.223Z,3.50
2017-09-15T13:55:20.776Z,3.87
2017-09-15T13:57:48.351Z,3.00
2017-09-15T14:00:15.916Z,2.90
2017-09-15T14:02:43.487Z,2.80
2017-09-15T14:05:11.022Z,2.40
2017-09-15T14:07:39.445Z,2.83
2017-09-15T14:10:06.987Z,2.97
2017-09-15T14:12:34.527Z,2.90
2017-09-15T14:15:02.830Z,3.07
2017-09-15T14:17:30.418Z,3.03
2017-09-15T14:19:57.980Z,3.20
2017-09-15T14:22:26.547Z,3.20
2017-09-15T14:24:54.121Z,3.33
2017-09-15T14:27:21.690Z,3.27
2017-09-15T14:29:49.299Z,2.90
2017-09-15T14:32:16.830Z,3.57
2017-09-15T14:34:44.470Z,3.47
2017-09-15T14:37:12.001Z,3.20
2017-09-15T14:39:39.679Z,3.00
2017-09-15T14:42:07.247Z,3.50
2017-09-15T14:44:34.998Z,3.40
2017-09-15T14:47:02.578Z,3.30
2017-09-15T14:49:30.134Z,3.40
2017-09-15T14:51:57.666Z,3.20
2017-09-15T14:54:25.339Z,2.90
2017-09-15T14:56:52.908Z,3.10
2017-09-15T14:59:20.439Z,3.27
2017-09-15T15:01:48.022Z,4.30
2017-09-15T15:04:15.556Z,2.77
2017-09-15T15:06:43.126Z,3.13
2017-09-15T15:09:10.722Z,2.97
2017-09-15T15:11:38.267Z,2.80
2017-09-15T15:14:05.834Z,3.23
2017-09-15T15:16:33.380Z,3.43
2017-09-15T15:19:00.928Z,3.00
2017-09-15T15:21:28.518Z,2.77
2017-09-15T15:23:56.096Z,3.00
2017-09-15T15:26:24.680Z,3.20
2017-09-15T15:28:52.247Z,2.97
2017-09-15T15:31:25.990Z,3.10
2017-09-15T15:33:54.330Z,2.70
2017-09-15T15:36:21.891Z,2.73
2017-09-15T15:38:49.430Z,3.40
2017-09-15T15:41:17.020Z,3.30
2017-09-15T15:43:44.611Z,3.00
2017-09-15T15:46:12.936Z,3.40
2017-09-15T15:48:40.561Z,3.33
2017-09-15T15:51:08.759Z,3.13
2017-09-15T15:53:36.827Z,3.60
2017-09-15T15:56:04.731Z,2.93
2017-09-15T15:58:32.269Z,3.70
2017-09-15T16:00:59.829Z,3.07
2017-09-15T16:03:27.369Z,3.03
2017-09-15T16:05:54.931Z,3.40
2017-09-15T16:08:22.455Z,3.30
2017-09-15T16:10:49.982Z,3.57
2017-09-15T16:13:17.518Z,3.70
2017-09-15T16:15:45.087Z,3.70
2017-09-15T16:18:12.747Z,3.77
2017-09-15T16:20:40.315Z,3.10
2017-09-15T16:23:07.873Z,3.70
2017-09-15T16:25:35.405Z,3.67
2017-09-15T16:28:11.719Z,3.10
2017-09-15T16:30:39.284Z,3.27
2017-09-15T16:33:06.835Z,3.70
2017-09-15T16:35:34.367Z,3.83
2017-09-15T16:38:07.551Z,3.63
2017-09-15T16:40:40.870Z,3.60
2017-09-15T16:43:14.030Z,3.93
2017-09-15T16:45:47.187Z,3.20
2017-09-15T16:48:21.466Z,3.73
2017-09-15T16:50:49.038Z,2.97
2017-09-15T16:53:16.586Z,3.60
2017-09-15T16:55:44.119Z,12.90
2017-09-15T16:58:11.659Z,3.80
2017-09-15T17:00:39.971Z,15.13
2017-09-15T17:03:07.527Z,3.43
2017-09-15T17:05:35.083Z,8.10
2017-09-15T17:08:02.611Z,4.23
2017-09-15T17:10:30.165Z,7.60
2017-09-15T17:12:57.701Z,4.73
2017-09-15T17:15:25.352Z,3.60
2017-09-15T17:17:52.879Z,3.43
2017-09-15T17:20:21.546Z,3.47
2017-09-15T17:22:49.911Z,3.50
2017-09-15T17:25:17.543Z,3.63
2017-09-15T17:27:45.107Z,3.27
2017-09-15T17:30:12.652Z,3.73
2017-09-15T17:32:40.206Z,4.17
2017-09-15T17:35:07.756Z,4.00
2017-09-15T17:37:35.346Z,3.80
2017-09-15T17:40:02.915Z,4.00
2017-09-15T17:42:30.567Z,4.50
2017-09-15T17:44:58.129Z,3.63
2017-09-15T17:47:25.687Z,3.13
2017-09-15T17:49:53.227Z,3.53
2017-09-15T17:52:20.796Z,3.43
2017-09-15T17:54:48.331Z,3.30
2017-09-15T17:57:16.646Z,3.30
2017-09-15T17:59:44.182Z,3.40
2017-09-15T18:02:11.719Z,3.40
2017-09-15T18:04:40.038Z,3.30
2017-09-15T18:07:07.572Z,3.50
2017-09-15T18:09:35.925Z,3.43
2017-09-15T18:12:03.456Z,2.97
2017-09-15T18:14:31.010Z,3.43
2017-09-15T18:16:58.556Z,3.37
2017-09-15T18:19:26.231Z,3.10
2017-09-15T18:21:53.758Z,3.20
2017-09-15T18:24:22.175Z,3.30
2017-09-15T18:26:49.738Z,3.00
2017-09-15T18:29:17.270Z,3.20
2017-09-15T18:31:44.810Z,3.47
2017-09-15T18:34:13.131Z,3.17
2017-09-15T18:36:40.663Z,3.57
2017-09-15T18:39:09.079Z,2.73
2017-09-15T18:41:36.618Z,3.07
2017-09-15T18:44:04.143Z,3.40
2017-09-15T18:46:32.443Z,3.50
2017-09-15T18:49:00.044Z,3.40
2017-09-15T18:51:27.610Z,3.27
2017-09-15T18:53:55.160Z,3.40
2017-09-15T18:56:22.687Z,3.03
2017-09-15T18:58:50.974Z,3.30
2017-09-15T19:01:18.506Z,2.90
2017-09-15T19:03:46.804Z,3.10
2017-09-15T19:06:14.407Z,3.30
2017-09-15T19:08:41.936Z,3.13
2017-09-15T19:11:09.979Z,3.20
2017-09-15T19:13:38.404Z,3.20
2017-09-15T19:16:06.011Z,3.17
2017-09-15T19:18:33.632Z,3.30
2017-09-15T19:21:01.170Z,3.13
2017-09-15T19:23:28.751Z,2.93
2017-09-15T19:25:56.313Z,3.37
2017-09-15T19:28:23.979Z,3.60
2017-09-15T19:30:51.510Z,3.57
2017-09-15T19:33:19.046Z,3.30
2017-09-15T19:35:46.656Z,3.87
2017-09-15T19:38:14.322Z,3.60
2017-09-15T19:40:41.863Z,3.20
2017-09-15T19:43:09.536Z,3.80
2017-09-15T19:45:37.101Z,3.40
2017-09-15T19:48:04.647Z,3.60
2017-09-15T19:50:32.228Z,3.80
2017-09-15T19:52:59.767Z,3.53
2017-09-15T19:55:27.327Z,3.60
2017-09-15T19:57:54.859Z,3.43
2017-09-15T20:00:23.204Z,3.23
2017-09-15T20:02:50.736Z,3.40
2017-09-15T20:05:18.303Z,3.50
2017-09-15T20:07:45.867Z,3.50
2017-09-15T20:10:13.424Z,3.77
2017-09-15T20:12:41.803Z,3.30
2017-09-15T20:15:09.342Z,2.80
2017-09-15T20:17:36.935Z,3.20
2017-09-15T20:20:04.586Z,3.50
2017-09-15T20:22:32.251Z,3.90
2017-09-15T20:24:59.830Z,4.10
2017-09-15T20:27:27.375Z,6.20
2017-09-15T20:29:55.695Z,5.90
2017-09-15T20:32:23.319Z,9.20
2017-09-15T20:34:50.855Z,6.80
2017-09-15T20:37:18.410Z,6.33
2017-09-15T20:39:45.999Z,7.03
2017-09-15T20:42:13.663Z,9.90
2017-09-15T20:44:41.223Z,9.73
2017-09-15T20:47:08.882Z,8.60
2017-09-15T20:49:36.443Z,9.53
2017-09-15T20:52:04.003Z,9.60
2017-09-15T20:54:31.539Z,7.93
2017-09-15T20:56:59.122Z,7.97
2017-09-15T20:59:26.766Z,5.60
2017-09-15T21:01:54.307Z,5.00
2017-09-15T21:04:22.727Z,5.10
2017-09-15T21:06:50.281Z,4.93
2017-09-15T21:09:17.860Z,4.93
2017-09-15T21:11:45.540Z,4.93
2017-09-15T21:14:13.093Z,4.73
2017-09-15T21:16:40.627Z,4.53
2017-09-15T21:19:08.202Z,4.60
2017-09-15T21:21:35.739Z,5.13
2017-09-15T21:24:03.450Z,5.03
2017-09-15T21:26:30.987Z,5.47
2017-09-15T21:28:58.547Z,5.20
2017-09-15T21:31:26.124Z,5.00
2017-09-15T21:33:53.770Z,13.53
2017-09-15T21:36:22.107Z,9.07
2017-09-15T21:38:49.758Z,6.53
2017-09-15T21:41:18.082Z,5.63
2017-09-15T21:43:45.655Z,4.83
2017-09-15T21:46:13.223Z,6.90
2017-09-15T21:48:40.755Z,4.80
2017-09-15T21:51:08.355Z,6.40
2017-09-15T21:53:35.908Z,5.30
2017-09-15T21:56:04.304Z,5.17
2017-09-15T21:58:32.699Z,5.00
2017-09-15T22:01:00.303Z,5.07
2017-09-15T22:03:27.857Z,5.27
2017-09-15T22:05:55.479Z,5.77
2017-09-15T22:08:23.886Z,5.20
2017-09-15T22:10:52.464Z,5.90
2017-09-15T22:13:20.097Z,5.87
2017-09-15T22:15:48.442Z,6.80
2017-09-15T22:18:16.322Z,6.27
2017-09-15T22:20:43.942Z,6.80
2017-09-15T22:23:11.689Z,6.17
2017-09-15T22:25:39.349Z,6.50
2017-09-15T22:28:07.764Z,6.80
2017-09-15T22:30:35.486Z,6.90
2017-09-15T22:33:03.971Z,6.60
2017-09-15T22:35:32.397Z,6.73
2017-09-15T22:38:00.012Z,7.30
2017-09-15T22:40:27.770Z,7.27
2017-09-15T22:42:56.156Z,7.37
2017-09-15T22:45:23.791Z,7.17
2017-09-15T22:47:51.404Z,6.80
2017-09-15T22:50:19.739Z,7.10
2017-09-15T22:52:47.282Z,6.80
2017-09-15T22:55:14.847Z,6.80
2017-09-15T22:57:42.382Z,7.73
2017-09-15T23:00:09.959Z,7.70
2017-09-15T23:02:37.578Z,8.23
2017-09-15T23:05:05.902Z,8.30
2017-09-15T23:07:33.436Z,8.83
2017-09-15T23:10:00.971Z,8.90
2017-09-15T23:12:29.304Z,7.80
2017-09-15T23:14:57.495Z,8.07
2017-09-15T23:17:25.147Z,7.37
2017-09-15T23:19:52.699Z,8.10
2017-09-15T23:22:20.259Z,7.80
2017-09-15T23:24:47.823Z,8.20
2017-09-15T23:27:15.435Z,8.33
2017-09-15T23:29:43.855Z,8.53
2017-09-15T23:32:11.416Z,9.43
2017-09-15T23:34:38.952Z,8.20
2017-09-15T23:37:06.542Z,8.47
2017-09-15T23:39:34.102Z,7.70
2017-09-15T23:42:01.663Z,7.50
2017-09-15T23:44:29.191Z,7.37
2017-09-15T23:46:57.507Z,7.60
2017-09-15T23:49:25.059Z,7.20
2017-09-15T23:51:52.587Z,8.13
2017-09-15T23:54:20.923Z,7.60
2017-09-15T23:56:48.455Z,9.00
2017-09-15T23:59:16.016Z,7.53
